createdAt,value
2019-05-12T00:02:05.105Z,7.40
2019-05-12T00:04:32.015Z,7.50
2019-05-12T00:06:58.921Z,7.60
2019-05-12T00:09:28.202Z,7.60
2019-05-12T00:11:54.344Z,7.50
2019-05-12T00:14:21.989Z,7.50
2019-05-12T00:16:50.146Z,7.40
2019-05-12T00:19:18.127Z,7.40
2019-05-12T00:21:48.146Z,7.30
2019-05-12T00:24:13.409Z,7.20
2019-05-12T00:26:40.918Z,7.30
2019-05-12T00:29:08.869Z,7.10
2019-05-12T00:31:38.291Z,7.10
2019-05-12T00:34:04.176Z,7.10
2019-05-12T00:36:31.349Z,7.10
2019-05-12T00:38:58.349Z,6.90
2019-05-12T00:41:25.081Z,6.90
2019-05-12T00:43:51.772Z,6.80
2019-05-12T00:46:18.494Z,6.80
2019-05-12T00:48:45.235Z,6.70
2019-05-12T00:51:12.709Z,6.70
2019-05-12T00:53:43.323Z,6.70
2019-05-12T00:56:08.537Z,6.60
2019-05-12T00:58:35.550Z,6.60
2019-05-12T01:01:03.149Z,6.60
2019-05-12T01:03:30.342Z,6.60
2019-05-12T01:05:57.731Z,6.60
2019-05-12T01:08:23.982Z,6.50
2019-05-12T01:10:50.778Z,6.60
2019-05-12T01:13:18.701Z,6.50
2019-05-12T01:15:44.460Z,6.50
2019-05-12T01:18:11.922Z,6.50
2019-05-12T01:20:39.371Z,6.50
2019-05-12T01:23:08.509Z,6.40
2019-05-12T01:25:33.853Z,6.40
2019-05-12T01:28:00.561Z,6.50
2019-05-12T01:30:28.544Z,6.40
2019-05-12T01:32:57.455Z,6.50
2019-05-12T01:35:22.309Z,6.40
2019-05-12T01:40:32.154Z,6.60
2019-05-12T01:42:59.102Z,6.70
2019-05-12T01:45:28.445Z,6.80
2019-05-12T01:47:53.667Z,6.80
2019-05-12T01:50:21.778Z,6.90
2019-05-12T01:52:49.955Z,7.00
2019-05-12T01:55:18.563Z,7.10
2019-05-12T01:57:44.354Z,7.20
2019-05-12T02:00:11.198Z,7.30
2019-05-12T02:02:38.599Z,7.30
2019-05-12T02:05:05.091Z,7.30
2019-05-12T02:07:32.345Z,7.30
2019-05-12T02:09:59.698Z,7.20
2019-05-12T02:12:28.824Z,7.30
2019-05-12T02:14:55.432Z,7.40
2019-05-12T02:17:22.480Z,7.40
2019-05-12T02:19:51.165Z,7.50
2019-05-12T02:22:18.987Z,7.50
2019-05-12T02:24:47.752Z,7.50
2019-05-12T02:27:12.509Z,7.60
2019-05-12T02:29:39.964Z,7.70
2019-05-12T02:32:06.913Z,7.70
2019-05-12T02:34:34.997Z,7.80
2019-05-12T02:37:00.599Z,7.80
2019-05-12T02:39:27.445Z,7.90
2019-05-12T02:41:55.004Z,7.70
2019-05-12T02:44:24.716Z,7.80
2019-05-12T02:46:50.224Z,7.80
2019-05-12T02:49:16.961Z,7.80
2019-05-12T02:51:45.523Z,7.90
2019-05-12T02:54:10.752Z,7.90
2019-05-12T02:56:37.596Z,7.80
2019-05-12T02:59:05.382Z,7.90
2019-05-12T03:01:34.552Z,7.90
2019-05-12T03:03:58.331Z,7.90
2019-05-12T03:06:25.381Z,7.90
2019-05-12T03:08:54.952Z,7.90
2019-05-12T03:11:18.981Z,8.00
2019-05-12T03:13:45.802Z,8.10
2019-05-12T03:16:14.911Z,8.10
2019-05-12T03:18:39.486Z,8.20
2019-05-12T03:21:06.349Z,8.20
2019-05-12T03:23:35.194Z,8.20
2019-05-12T03:26:00.734Z,8.20
2019-05-12T03:28:27.680Z,8.10
2019-05-12T03:30:57.485Z,8.10
2019-05-12T03:33:27.843Z,8.00
2019-05-12T03:35:52.729Z,8.00
2019-05-12T03:38:15.272Z,8.00
2019-05-12T03:40:45.104Z,7.90
2019-05-12T03:43:09.043Z,8.00
2019-05-12T03:45:36.473Z,8.00
2019-05-12T03:48:04.219Z,8.20
2019-05-12T03:50:29.774Z,8.20
2019-05-12T03:52:56.781Z,8.20
2019-05-12T03:55:34.179Z,8.00
2019-05-12T03:57:50.191Z,7.90
2019-05-12T04:00:17.041Z,8.00
2019-05-12T04:02:45.328Z,7.70
2019-05-12T04:05:10.832Z,7.80
2019-05-12T04:07:37.673Z,7.90
2019-05-12T04:10:05.396Z,7.80
2019-05-12T04:12:34.286Z,7.80
2019-05-12T04:14:58.304Z,7.80
2019-05-12T04:17:25.044Z,7.80
2019-05-12T04:19:54.824Z,7.60
2019-05-12T04:22:18.937Z,7.60
2019-05-12T04:24:45.777Z,7.50
2019-05-12T04:27:15.082Z,7.40
2019-05-12T04:29:39.568Z,7.40
2019-05-12T04:32:06.617Z,7.50
2019-05-12T04:34:34.301Z,7.60
2019-05-12T04:37:00.298Z,7.50
2019-05-12T04:39:27.147Z,7.50
2019-05-12T04:41:55.174Z,7.40
2019-05-12T04:44:20.935Z,7.50
2019-05-12T04:46:47.779Z,7.60
2019-05-12T04:49:15.723Z,7.60
2019-05-12T04:51:44.960Z,7.60
2019-05-12T04:54:08.612Z,7.50
2019-05-12T04:56:36.152Z,7.70
2019-05-12T04:59:05.016Z,7.80
2019-05-12T05:01:29.239Z,8.00
2019-05-12T05:03:56.083Z,7.90
2019-05-12T05:06:25.324Z,7.90
2019-05-12T05:08:49.876Z,8.00
2019-05-12T05:11:16.714Z,7.90
2019-05-12T05:13:44.410Z,8.10
2019-05-12T05:16:10.297Z,8.20
2019-05-12T05:18:40.339Z,8.40
2019-05-12T05:21:04.688Z,8.00
2019-05-12T05:23:30.917Z,7.90
2019-05-12T05:25:57.772Z,8.10
2019-05-12T05:28:24.512Z,8.10
2019-05-12T05:30:53.496Z,8.20
2019-05-12T05:33:20.002Z,8.20
2019-05-12T05:35:45.863Z,8.40
2019-05-12T05:38:18.728Z,8.50
2019-05-12T05:40:43.386Z,8.60
2019-05-12T05:43:18.456Z,8.70
2019-05-12T05:45:35.428Z,8.70
2019-05-12T05:48:05.531Z,8.70
2019-05-12T05:50:29.701Z,8.80
2019-05-12T05:52:55.499Z,8.80
2019-05-12T05:55:23.356Z,8.70
2019-05-12T05:57:49.801Z,8.60
2019-05-12T06:00:22.596Z,8.50
2019-05-12T06:02:44.271Z,8.70
2019-05-12T06:05:10.737Z,8.80
2019-05-12T06:07:39.312Z,8.50
2019-05-12T06:10:04.524Z,8.60
2019-05-12T06:12:33.478Z,8.60
2019-05-12T06:14:59.838Z,8.40
2019-05-12T06:17:25.054Z,8.20
2019-05-12T06:19:53.836Z,8.20
2019-05-12T06:22:18.740Z,8.00
2019-05-12T06:24:49.206Z,8.20
2019-05-12T06:27:19.457Z,8.50
2019-05-12T06:29:39.271Z,8.60
2019-05-12T06:32:10.655Z,8.50
2019-05-12T06:34:34.265Z,8.40
2019-05-12T06:37:03.127Z,8.40
2019-05-12T06:39:26.795Z,8.60
2019-05-12T06:41:56.997Z,9.00
2019-05-12T06:44:21.245Z,9.00
2019-05-12T06:46:47.985Z,9.20
2019-05-12T06:49:17.413Z,9.30
2019-05-12T06:51:44.287Z,9.30
2019-05-12T06:54:12.073Z,9.30
2019-05-12T06:56:35.283Z,9.20
2019-05-12T06:59:09.937Z,9.30
2019-05-12T07:01:28.787Z,9.40
2019-05-12T07:04:00.628Z,9.30
2019-05-12T07:06:24.742Z,9.30
2019-05-12T07:09:02.350Z,9.40
2019-05-12T07:11:18.698Z,9.20
2019-05-12T07:13:45.517Z,9.20
2019-05-12T07:16:19.194Z,9.50
2019-05-12T07:18:39.160Z,9.60
2019-05-12T07:21:09.433Z,9.80
2019-05-12T07:23:33.753Z,9.80
2019-05-12T07:26:05.007Z,10.00
2019-05-12T07:28:30.461Z,10.10
2019-05-12T07:30:54.497Z,10.30
2019-05-12T07:33:20.072Z,10.30
2019-05-12T07:35:46.856Z,10.40
2019-05-12T07:38:21.160Z,10.40
2019-05-12T07:40:40.498Z,10.40
2019-05-12T07:43:09.873Z,10.30
2019-05-12T07:45:34.212Z,10.40
2019-05-12T07:48:05.615Z,10.40
2019-05-12T07:50:28.160Z,10.30
2019-05-12T07:52:54.943Z,10.20
2019-05-12T07:55:23.738Z,10.00
2019-05-12T07:57:55.455Z,9.60
2019-05-12T08:00:21.026Z,9.50
2019-05-12T08:02:44.345Z,9.40
2019-05-12T08:05:11.081Z,9.40
2019-05-12T08:07:37.824Z,9.30
2019-05-12T08:10:15.921Z,9.10
2019-05-12T08:12:34.274Z,9.10
2019-05-12T08:15:05.459Z,9.10
2019-05-12T08:17:28.548Z,9.30
2019-05-12T08:19:55.938Z,9.30
2019-05-12T08:22:25.127Z,9.50
2019-05-12T08:24:50.089Z,9.60
2019-05-12T08:27:16.800Z,9.70
2019-05-12T08:29:43.494Z,9.70
2019-05-12T08:32:18.006Z,9.70
2019-05-12T08:34:39.728Z,9.60
2019-05-12T08:37:04.458Z,9.50
2019-05-12T08:39:30.739Z,9.80
2019-05-12T08:41:57.421Z,9.80
2019-05-12T08:44:33.721Z,10.00
2019-05-12T08:46:53.365Z,9.90
2019-05-12T08:49:18.457Z,10.10
2019-05-12T08:51:49.464Z,10.20
2019-05-12T08:54:14.072Z,10.30
2019-05-12T08:56:38.846Z,10.30
2019-05-12T08:59:09.488Z,10.10
2019-05-12T09:01:34.359Z,10.10
2019-05-12T09:04:00.395Z,10.10
2019-05-12T09:06:26.885Z,10.20
2019-05-12T09:08:55.409Z,10.30
2019-05-12T09:11:24.404Z,10.30
2019-05-12T09:13:52.583Z,10.20
2019-05-12T09:16:18.722Z,10.50
2019-05-12T09:18:45.541Z,10.60
2019-05-12T09:21:14.134Z,10.50
2019-05-12T09:23:41.134Z,10.70
2019-05-12T09:26:05.868Z,10.70
2019-05-12T09:28:44.357Z,11.00
2019-05-12T09:30:59.383Z,11.10
2019-05-12T09:33:29.571Z,11.40
2019-05-12T09:35:54.079Z,11.70
2019-05-12T09:38:21.547Z,11.90
2019-05-12T09:40:47.297Z,12.40
2019-05-12T09:43:14.112Z,12.40
2019-05-12T09:45:49.753Z,12.50
2019-05-12T09:48:09.340Z,12.60
2019-05-12T09:50:34.485Z,13.30
2019-05-12T09:53:07.096Z,13.60
2019-05-12T09:55:28.008Z,13.90
2019-05-12T09:57:54.730Z,14.40
2019-05-12T10:00:23.827Z,14.60
2019-05-12T10:02:51.066Z,14.60
2019-05-12T10:05:15.169Z,14.30
2019-05-12T10:07:44.374Z,14.30
2019-05-12T10:10:08.805Z,14.00
2019-05-12T10:12:44.662Z,13.70
2019-05-12T10:15:04.288Z,13.90
2019-05-12T10:17:33.984Z,14.00
2019-05-12T10:19:59.752Z,14.30
2019-05-12T10:22:37.704Z,14.10
2019-05-12T10:25:00.117Z,14.10
2019-05-12T10:27:31.802Z,13.60
2019-05-12T10:29:54.381Z,13.50
2019-05-12T10:32:23.920Z,13.50
2019-05-12T10:34:51.046Z,13.10
2019-05-12T10:37:19.266Z,12.90
2019-05-12T10:39:42.033Z,12.80
2019-05-12T10:42:08.740Z,13.00
2019-05-12T10:44:40.709Z,13.10
2019-05-12T10:47:04.411Z,12.90
2019-05-12T10:49:30.045Z,13.20
2019-05-12T10:51:57.504Z,12.60
2019-05-12T10:54:24.409Z,12.70
2019-05-12T10:56:51.115Z,12.70
2019-05-12T10:59:30.323Z,12.40
2019-05-12T11:01:48.797Z,12.60
2019-05-12T11:04:11.662Z,12.40
2019-05-12T11:06:39.727Z,12.60
2019-05-12T11:09:06.188Z,12.50
2019-05-12T11:11:41.724Z,12.50
2019-05-12T11:14:00.451Z,13.00
2019-05-12T11:16:31.123Z,13.00
2019-05-12T11:18:54.677Z,14.10
2019-05-12T11:21:21.445Z,14.10
2019-05-12T11:23:48.146Z,14.30
2019-05-12T11:26:14.938Z,14.50
2019-05-12T11:28:41.656Z,14.60
2019-05-12T11:31:08.366Z,14.90
2019-05-12T11:33:35.127Z,15.00
2019-05-12T11:36:01.828Z,15.20
2019-05-12T11:38:28.537Z,15.40
2019-05-12T11:40:55.281Z,14.80
2019-05-12T11:43:24.838Z,14.50
2019-05-12T11:45:49.579Z,14.50
2019-05-12T11:48:17.025Z,14.00
2019-05-12T11:50:47.902Z,14.00
2019-05-12T11:53:10.521Z,14.10
2019-05-12T11:55:37.957Z,14.10
2019-05-12T11:58:09.814Z,14.10
2019-05-12T12:00:33.616Z,14.20
2019-05-12T12:03:03.783Z,14.40
2019-05-12T12:05:26.270Z,14.20
2019-05-12T12:07:56.329Z,14.20
2019-05-12T12:10:23.439Z,14.20
2019-05-12T12:12:49.913Z,14.20
2019-05-12T12:15:20.242Z,14.50
2019-05-12T12:17:44.185Z,14.70
2019-05-12T12:20:15.972Z,14.60
2019-05-12T12:22:43.448Z,14.20
2019-05-12T12:25:10.666Z,13.80
2019-05-12T12:27:35.992Z,13.60
2019-05-12T12:30:16.059Z,13.70
2019-05-12T12:32:30.335Z,13.90
2019-05-12T12:35:00.966Z,13.90
2019-05-12T12:37:25.723Z,13.60
2019-05-12T12:39:53.584Z,13.70
2019-05-12T12:42:19.758Z,13.70
2019-05-12T12:44:46.474Z,13.70
2019-05-12T12:47:13.945Z,13.30
2019-05-12T12:49:44.432Z,12.50
2019-05-12T12:52:07.519Z,12.00
2019-05-12T12:54:34.241Z,12.10
2019-05-12T12:57:06.589Z,11.90
2019-05-12T12:59:27.760Z,12.00
2019-05-12T13:01:59.192Z,12.20
2019-05-12T13:04:21.353Z,12.20
2019-05-12T13:06:48.076Z,12.50
2019-05-12T13:09:24.203Z,12.30
2019-05-12T13:11:41.675Z,12.00
2019-05-12T13:14:09.194Z,12.20
2019-05-12T13:16:36.031Z,12.20
2019-05-12T13:19:06.105Z,12.50
2019-05-12T13:21:29.556Z,12.90
2019-05-12T13:23:57.050Z,13.50
2019-05-12T13:26:24.026Z,13.50
2019-05-12T13:28:53.342Z,13.60
2019-05-12T13:31:17.595Z,13.70
2019-05-12T13:33:49.314Z,13.30
2019-05-12T13:36:13.552Z,12.90
2019-05-12T13:38:40.507Z,13.30
2019-05-12T13:41:09.671Z,13.20
2019-05-12T13:43:34.036Z,12.60
2019-05-12T13:45:59.045Z,12.60
2019-05-12T13:48:25.734Z,12.00
2019-05-12T13:50:54.352Z,12.20
2019-05-12T13:53:19.275Z,12.40
2019-05-12T13:55:49.490Z,12.50
2019-05-12T13:58:13.673Z,13.10
2019-05-12T14:00:41.379Z,13.10
2019-05-12T14:03:09.599Z,13.40
2019-05-12T14:05:33.901Z,13.50
2019-05-12T14:08:01.062Z,13.40
2019-05-12T14:10:27.910Z,13.50
2019-05-12T14:12:55.437Z,13.80
2019-05-12T14:15:24.631Z,13.80
2019-05-12T14:17:49.055Z,14.10
2019-05-12T14:20:20.006Z,14.00
2019-05-12T14:22:44.724Z,13.60
2019-05-12T14:25:10.183Z,13.50
2019-05-12T14:27:36.879Z,13.40
2019-05-12T14:30:10.006Z,13.40
2019-05-12T14:32:33.507Z,13.40
2019-05-12T14:35:00.687Z,13.60
2019-05-12T14:37:25.832Z,13.50
2019-05-12T14:39:53.674Z,13.70
2019-05-12T14:42:19.362Z,13.50
2019-05-12T14:44:49.650Z,13.40
2019-05-12T14:47:12.880Z,13.40
2019-05-12T14:49:39.624Z,13.00
2019-05-12T14:52:06.415Z,12.80
2019-05-12T14:54:34.306Z,12.70
2019-05-12T14:57:00.015Z,12.80
2019-05-12T14:59:30.179Z,12.80
2019-05-12T15:01:59.217Z,12.70
2019-05-12T15:04:27.820Z,12.50
2019-05-12T15:06:48.805Z,12.50
2019-05-12T15:09:19.687Z,12.40
2019-05-12T15:11:43.685Z,12.50
2019-05-12T15:14:09.183Z,12.30
2019-05-12T15:16:40.265Z,12.30
2019-05-12T15:19:03.403Z,12.10
2019-05-12T15:21:31.274Z,12.10
2019-05-12T15:23:56.320Z,11.90
2019-05-12T15:26:24.342Z,11.90
2019-05-12T15:28:50.671Z,11.90
2019-05-12T15:31:17.430Z,11.50
2019-05-12T15:33:44.152Z,11.30
2019-05-12T15:36:10.893Z,11.00
2019-05-12T15:38:37.601Z,10.90
2019-05-12T15:41:04.399Z,10.90
2019-05-12T15:43:35.790Z,10.70
2019-05-12T15:45:59.715Z,10.70
2019-05-12T15:48:26.155Z,10.40
2019-05-12T15:50:54.002Z,9.70
2019-05-12T15:53:22.198Z,9.70
2019-05-12T15:55:46.377Z,9.50
2019-05-12T15:58:14.170Z,9.20
2019-05-12T16:00:39.999Z,8.90
2019-05-12T16:03:06.721Z,8.90
2019-05-12T16:05:34.237Z,8.70
2019-05-12T16:08:03.575Z,8.60
2019-05-12T16:10:28.869Z,8.50
2019-05-12T16:12:55.660Z,8.50
2019-05-12T16:15:22.574Z,8.60
2019-05-12T16:17:49.417Z,8.50
2019-05-12T16:20:16.174Z,8.50
2019-05-12T16:22:45.221Z,8.30
2019-05-12T16:25:10.601Z,8.30
2019-05-12T16:27:37.441Z,8.30
2019-05-12T16:30:05.071Z,8.20
2019-05-12T16:32:42.143Z,8.10
2019-05-12T16:34:59.353Z,8.00
2019-05-12T16:37:31.058Z,7.90
2019-05-12T16:39:54.075Z,7.80
2019-05-12T16:42:19.725Z,7.80
2019-05-12T16:44:46.444Z,7.70
2019-05-12T16:47:18.765Z,7.60
2019-05-12T16:49:40.763Z,7.60
2019-05-12T16:52:08.452Z,7.50
2019-05-12T16:54:35.213Z,7.40
2019-05-12T16:57:08.464Z,7.30
2019-05-12T16:59:29.495Z,7.50
2019-05-12T17:01:59.304Z,7.40
2019-05-12T17:04:23.885Z,7.50
2019-05-12T17:06:49.976Z,7.50
2019-05-12T17:09:16.933Z,7.60
2019-05-12T17:11:50.108Z,7.60
2019-05-12T17:14:10.549Z,7.70
2019-05-12T17:16:41.860Z,7.80
2019-05-12T17:19:10.008Z,7.80
2019-05-12T17:21:33.544Z,7.80
2019-05-12T17:23:59.252Z,7.80
2019-05-12T17:26:25.958Z,7.70
2019-05-12T17:28:54.754Z,7.60
2019-05-12T17:31:22.608Z,7.30
2019-05-12T17:33:49.317Z,7.30
2019-05-12T17:36:17.975Z,7.20
2019-05-12T17:38:44.039Z,7.00
2019-05-12T17:41:09.781Z,6.90
2019-05-12T17:43:40.002Z,6.80
2019-05-12T17:46:04.792Z,6.90
2019-05-12T17:48:37.046Z,6.80
2019-05-12T17:51:00.339Z,6.90
2019-05-12T17:53:30.627Z,6.90
2019-05-12T17:55:56.357Z,6.90
2019-05-12T17:58:24.224Z,6.90
2019-05-12T18:00:51.920Z,7.00
2019-05-12T18:03:22.069Z,7.00
2019-05-12T18:05:48.036Z,6.90
2019-05-12T18:08:14.440Z,6.80
2019-05-12T18:10:43.487Z,6.80
2019-05-12T18:13:08.225Z,6.90
2019-05-12T18:15:37.829Z,7.00
2019-05-12T18:18:04.085Z,7.00
2019-05-12T18:20:31.243Z,7.00
2019-05-12T18:22:57.780Z,6.90
2019-05-12T18:25:30.335Z,6.80
2019-05-12T18:27:58.148Z,6.80
2019-05-12T18:30:26.118Z,6.80
2019-05-12T18:33:04.039Z,6.90
2019-05-12T18:35:20.995Z,6.80
2019-05-12T18:37:47.761Z,6.90
2019-05-12T18:40:14.954Z,6.90
2019-05-12T18:42:42.333Z,6.80
2019-05-12T18:45:17.730Z,6.80
2019-05-12T18:47:39.695Z,6.70
2019-05-12T18:50:06.497Z,6.60
2019-05-12T18:52:37.708Z,6.60
2019-05-12T18:55:00.374Z,6.50
2019-05-12T18:57:27.587Z,6.30
2019-05-12T18:59:59.762Z,6.40
2019-05-12T19:02:23.544Z,6.50
2019-05-12T19:04:48.900Z,6.50
2019-05-12T19:07:15.632Z,6.40
2019-05-12T19:09:46.950Z,6.40
2019-05-12T19:12:16.131Z,6.30
2019-05-12T19:14:40.336Z,6.30
2019-05-12T19:17:04.073Z,6.30
2019-05-12T19:19:30.885Z,6.30
2019-05-12T19:22:04.751Z,6.30
2019-05-12T19:24:25.986Z,6.30
2019-05-12T19:26:54.116Z,6.30
2019-05-12T19:29:19.780Z,6.30
2019-05-12T19:31:52.297Z,6.30
2019-05-12T19:34:20.072Z,6.30
2019-05-12T19:36:45.027Z,6.20
2019-05-12T19:39:07.922Z,6.20
2019-05-12T19:41:36.507Z,6.20
2019-05-12T19:44:03.930Z,6.20
2019-05-12T19:46:28.476Z,6.20
2019-05-12T19:48:55.387Z,6.20
2019-05-12T19:51:27.246Z,6.30
2019-05-12T19:53:49.605Z,6.30
2019-05-12T19:56:18.908Z,6.20
2019-05-12T19:58:45.893Z,6.20
2019-05-12T20:01:13.909Z,6.30
2019-05-12T20:03:38.578Z,6.30
2019-05-12T20:06:05.371Z,6.30
2019-05-12T20:08:32.134Z,6.30
2019-05-12T20:10:58.929Z,6.30
2019-05-12T20:13:29.700Z,6.30
2019-05-12T20:15:52.514Z,6.30
2019-05-12T20:18:19.265Z,6.30
2019-05-12T20:20:46.271Z,6.20
2019-05-12T20:23:14.121Z,6.00
2019-05-12T20:25:40.499Z,6.10
2019-05-12T20:28:11.224Z,6.10
2019-05-12T20:30:35.111Z,6.10
2019-05-12T20:33:04.176Z,5.90
2019-05-12T20:35:29.948Z,5.60
2019-05-12T20:37:57.566Z,5.60
2019-05-12T20:40:24.037Z,5.60
2019-05-12T20:43:07.482Z,5.60
2019-05-12T20:45:17.766Z,5.60
2019-05-12T20:47:47.503Z,5.60
2019-05-12T20:50:14.444Z,5.70
2019-05-12T20:52:45.056Z,5.70
2019-05-12T20:55:07.848Z,5.80
2019-05-12T20:57:40.082Z,5.80
2019-05-12T21:00:08.204Z,5.80
2019-05-12T21:02:30.619Z,5.80
2019-05-12T21:05:00.865Z,5.80
2019-05-12T21:07:27.010Z,5.80
2019-05-12T21:09:51.680Z,5.80
2019-05-12T21:12:18.654Z,5.90
2019-05-12T21:14:51.353Z,5.90
2019-05-12T21:17:15.951Z,5.90
2019-05-12T21:19:41.509Z,5.90
2019-05-12T21:22:07.317Z,5.80
2019-05-12T21:24:36.038Z,5.90
2019-05-12T21:27:03.688Z,5.90
2019-05-12T21:29:29.993Z,6.00
2019-05-12T21:31:56.226Z,5.90
2019-05-12T21:34:23.335Z,5.90
2019-05-12T21:36:49.279Z,5.80
2019-05-12T21:39:16.708Z,5.80
2019-05-12T21:41:47.430Z,5.80
2019-05-12T21:44:11.495Z,5.80
2019-05-12T21:46:38.383Z,5.80
2019-05-12T21:49:11.972Z,5.80
2019-05-12T21:51:34.035Z,5.80
2019-05-12T21:53:59.208Z,5.90
2019-05-12T21:56:25.944Z,5.90
2019-05-12T21:58:56.466Z,6.00
2019-05-12T22:01:19.621Z,5.90
2019-05-12T22:03:57.814Z,5.90
2019-05-12T22:06:21.173Z,5.90
2019-05-12T22:08:40.337Z,5.80
2019-05-12T22:11:11.355Z,5.90
2019-05-12T22:13:34.930Z,5.90
2019-05-12T22:16:03.669Z,5.80
2019-05-12T22:18:28.700Z,5.80
2019-05-12T22:21:01.307Z,5.80
2019-05-12T22:23:24.729Z,5.80
2019-05-12T22:25:55.636Z,5.80
2019-05-12T22:28:17.398Z,5.70
2019-05-12T22:30:44.327Z,5.70
2019-05-12T22:33:13.770Z,5.80
2019-05-12T22:35:40.520Z,5.80
2019-05-12T22:38:15.243Z,5.80
2019-05-12T22:40:34.302Z,5.80
2019-05-12T22:43:03.811Z,5.80
2019-05-12T22:45:28.083Z,5.80
2019-05-12T22:47:58.985Z,5.80
2019-05-12T22:50:27.243Z,5.70
2019-05-12T22:52:49.615Z,5.70
2019-05-12T22:55:21.313Z,5.70
2019-05-12T22:57:43.586Z,5.70
2019-05-12T23:00:13.448Z,5.70
2019-05-12T23:02:37.874Z,5.70
2019-05-12T23:05:04.799Z,5.70
2019-05-12T23:07:33.126Z,5.70
2019-05-12T23:10:00.684Z,5.80
2019-05-12T23:12:30.334Z,5.70
2019-05-12T23:15:02.989Z,5.70
2019-05-12T23:17:25.173Z,5.70
2019-05-12T23:19:55.537Z,5.70
2019-05-12T23:22:19.620Z,5.70
2019-05-12T23:24:46.911Z,5.70
2019-05-12T23:27:18.878Z,5.70
2019-05-12T23:29:44.242Z,5.70
2019-05-12T23:32:12.000Z,5.70
2019-05-12T23:34:37.135Z,5.60
2019-05-12T23:37:04.072Z,5.60
2019-05-12T23:39:32.285Z,5.60
2019-05-12T23:41:57.837Z,5.60
2019-05-12T23:44:24.687Z,5.60
2019-05-12T23:46:53.693Z,5.60
2019-05-12T23:49:18.509Z,5.60
2019-05-12T23:51:45.235Z,5.60
2019-05-12T23:54:14.217Z,5.60
2019-05-12T23:56:38.751Z,5.60
2019-05-12T23:59:05.554Z,5.60
